Time,TemperatureF,DewpointF,PressureIn,WindDirection,WindDirectionDegrees,WindSpeedMPH,WindSpeedGustMPH,Humidity,HourlyPrecipIn,Conditions,Clouds,dailyrainin,SolarRadiationWatts/m^2,SoftwareType,DateUTC
2013-04-03 00:02:00,38.0,24.0,-100.00,WNW,299,0.0,11.0,57,0.00,,,0.00,0.000000,,2013-04-03 07:02:00,
2013-04-03 00:33:00,32.0,25.0,-100.00,NNE,28,0.0,0.0,75,0.00,,,-99.99,0.000000,,2013-04-03 07:33:00,
2013-04-03 00:42:00,32.0,25.0,-100.00,NNE,28,0.0,0.0,75,0.00,,,-99.99,0.000000,,2013-04-03 07:42:00,
2013-04-03 00:53:00,32.0,25.0,-100.00,NNE,28,0.0,0.0,75,0.00,,,-99.99,0.000000,,2013-04-03 07:53:00,
2013-04-03 01:02:00,32.0,25.0,-100.00,NNE,28,0.0,0.0,75,0.00,,,-99.99,0.000000,,2013-04-03 08:02:00,
2013-04-03 01:33:00,28.0,24.0,-100.00,West,268,0.0,0.0,83,0.00,,,0.00,0.000000,,2013-04-03 08:33:00,
2013-04-03 01:43:00,28.0,24.0,-100.00,West,268,0.0,0.0,83,0.00,,,0.00,0.000000,,2013-04-03 08:43:00,
2013-04-03 01:52:00,28.0,24.0,-100.00,West,268,0.0,0.0,83,0.00,,,0.00,0.000000,,2013-04-03 08:52:00,
2013-04-03 02:02:00,28.0,24.0,-100.00,West,268,0.0,0.0,83,0.00,,,0.00,0.000000,,2013-04-03 09:02:00,
2013-04-03 02:33:00,27.0,23.0,-100.00,WSW,237,0.0,0.0,86,0.00,,,0.00,0.000000,,2013-04-03 09:33:00,
2013-04-03 02:43:00,27.0,23.0,-100.00,WSW,237,0.0,0.0,86,0.00,,,0.00,0.000000,,2013-04-03 09:43:00,
2013-04-03 02:53:00,27.0,23.0,-100.00,WSW,237,0.0,0.0,86,0.00,,,0.00,0.000000,,2013-04-03 09:53:00,
2013-04-03 03:02:00,27.0,23.0,-100.00,WSW,237,0.0,0.0,86,0.00,,,0.00,0.000000,,2013-04-03 10:02:00,
2013-04-03 03:33:00,25.0,22.0,-100.00,North,352,0.0,0.0,89,0.00,,,0.00,0.000000,,2013-04-03 10:33:00,
2013-04-03 03:43:00,25.0,22.0,-100.00,North,352,0.0,0.0,89,0.00,,,0.00,0.000000,,2013-04-03 10:43:00,
2013-04-03 03:53:00,25.0,22.0,-100.00,North,352,0.0,0.0,89,0.00,,,0.00,0.000000,,2013-04-03 10:53:00,
2013-04-03 04:02:00,25.0,22.0,-100.00,North,352,0.0,0.0,89,0.00,,,0.00,0.000000,,2013-04-03 11:02:00,
2013-04-03 04:33:00,24.0,22.0,-100.00,NE,50,0.0,0.0,91,0.00,,,0.00,0.000000,,2013-04-03 11:33:00,
2013-04-03 04:42:00,24.0,22.0,-100.00,NE,50,0.0,0.0,91,0.00,,,0.00,0.000000,,2013-04-03 11:42:00,
2013-04-03 04:53:00,24.0,22.0,-100.00,NE,50,0.0,0.0,91,0.00,,,0.00,0.000000,,2013-04-03 11:53:00,
2013-04-03 05:01:00,24.0,22.0,-100.00,NE,50,0.0,0.0,91,0.00,,,0.00,0.000000,,2013-04-03 12:01:00,
2013-04-03 05:33:00,23.0,21.0,-100.00,North,10,0.0,0.0,90,0.00,,,-99.99,0.000000,,2013-04-03 12:33:00,
2013-04-03 05:42:00,23.0,21.0,-100.00,North,10,0.0,0.0,90,0.00,,,-99.99,0.000000,,2013-04-03 12:42:00,
2013-04-03 05:52:00,23.0,21.0,-100.00,North,10,0.0,0.0,90,0.00,,,-99.99,0.000000,,2013-04-03 12:52:00,
2013-04-03 06:02:00,23.0,21.0,-100.00,North,10,0.0,0.0,90,0.00,,,-99.99,0.000000,,2013-04-03 13:02:00,
2013-04-03 06:32:00,22.0,20.0,-100.00,East,80,0.0,0.0,91,0.00,,,0.00,0.000000,,2013-04-03 13:32:00,
2013-04-03 06:42:00,22.0,20.0,-100.00,East,80,0.0,0.0,91,0.00,,,0.00,0.000000,,2013-04-03 13:42:00,
2013-04-03 06:52:00,22.0,20.0,-100.00,East,80,0.0,0.0,91,0.00,,,0.00,0.000000,,2013-04-03 13:52:00,
2013-04-03 07:02:00,22.0,20.0,-100.00,East,80,0.0,0.0,91,0.00,,,0.00,0.000000,,2013-04-03 14:02:00,
2013-04-03 07:32:00,32.0,27.0,-100.00,SW,224,0.0,9.0,83,0.00,,,0.00,79.000000,,2013-04-03 14:32:00,
2013-04-03 07:43:00,32.0,27.0,-100.00,SW,224,0.0,9.0,83,0.00,,,0.00,79.000000,,2013-04-03 14:43:00,
2013-04-03 07:52:00,32.0,27.0,-100.00,SW,224,0.0,9.0,83,0.00,,,0.00,79.000000,,2013-04-03 14:52:00,
2013-04-03 08:02:00,32.0,27.0,-100.00,SW,224,0.0,9.0,83,0.00,,,0.00,79.000000,,2013-04-03 15:02:00,
2013-04-03 08:33:00,46.0,29.0,-100.00,ENE,71,11.0,17.0,52,0.00,,,0.00,288.000000,,2013-04-03 15:33:00,
2013-04-03 08:43:00,46.0,29.0,-100.00,ENE,71,11.0,17.0,52,0.00,,,0.00,288.000000,,2013-04-03 15:43:00,
2013-04-03 08:53:00,46.0,29.0,-100.00,ENE,71,11.0,17.0,52,0.00,,,0.00,288.000000,,2013-04-03 15:53:00,
2013-04-03 09:02:00,46.0,29.0,-100.00,ENE,71,11.0,17.0,52,0.00,,,0.00,288.000000,,2013-04-03 16:02:00,
2013-04-03 09:33:00,49.0,27.0,-100.00,ENE,62,12.0,20.0,43,0.00,,,0.00,506.000000,,2013-04-03 16:33:00,
2013-04-03 09:44:00,49.0,27.0,-100.00,ENE,62,12.0,20.0,43,0.00,,,0.00,506.000000,,2013-04-03 16:44:00,
2013-04-03 09:52:00,49.0,27.0,-100.00,ENE,62,12.0,20.0,43,0.00,,,0.00,506.000000,,2013-04-03 16:52:00,
2013-04-03 10:02:00,49.0,27.0,-100.00,ENE,62,12.0,20.0,43,0.00,,,0.00,506.000000,,2013-04-03 17:02:00,
2013-04-03 10:34:00,51.0,26.0,-100.00,ENE,62,12.0,20.0,37,0.00,,,0.00,687.000000,,2013-04-03 17:34:00,
2013-04-03 10:46:00,51.0,26.0,-100.00,ENE,62,12.0,20.0,37,0.00,,,0.00,687.000000,,2013-04-03 17:46:00,
2013-04-03 10:53:00,51.0,26.0,-100.00,ENE,62,12.0,20.0,37,0.00,,,0.00,687.000000,,2013-04-03 17:53:00,
2013-04-03 11:02:00,51.0,26.0,-100.00,ENE,62,12.0,20.0,37,0.00,,,0.00,687.000000,,2013-04-03 18:02:00,
2013-04-03 11:34:00,54.0,25.0,-100.00,NE,41,11.0,24.0,32,0.00,,,0.00,825.000000,,2013-04-03 18:34:00,
2013-04-03 11:43:00,54.0,25.0,-100.00,NE,41,11.0,24.0,32,0.00,,,0.00,825.000000,,2013-04-03 18:43:00,
2013-04-03 11:52:00,54.0,25.0,-100.00,NE,41,11.0,24.0,32,0.00,,,0.00,825.000000,,2013-04-03 18:52:00,
2013-04-03 12:02:00,54.0,25.0,-100.00,NE,41,11.0,24.0,32,0.00,,,0.00,825.000000,,2013-04-03 19:02:00,
2013-04-03 12:32:00,55.0,21.0,-100.00,ENE,59,12.0,21.0,26,0.00,,,0.00,905.000000,,2013-04-03 19:32:00,
2013-04-03 12:42:00,55.0,21.0,-100.00,ENE,59,12.0,21.0,26,0.00,,,0.00,905.000000,,2013-04-03 19:42:00,
2013-04-03 12:52:00,55.0,21.0,-100.00,ENE,59,12.0,21.0,26,0.00,,,0.00,905.000000,,2013-04-03 19:52:00,
2013-04-03 13:02:00,55.0,21.0,-100.00,ENE,59,12.0,21.0,26,0.00,,,0.00,905.000000,,2013-04-03 20:02:00,
2013-04-03 13:33:00,58.0,17.0,-100.00,ENE,62,9.0,20.0,20,0.00,,,0.00,925.000000,,2013-04-03 20:33:00,
2013-04-03 13:42:00,58.0,17.0,-100.00,ENE,62,9.0,20.0,20,0.00,,,0.00,925.000000,,2013-04-03 20:42:00,
2013-04-03 13:53:00,58.0,17.0,-100.00,ENE,62,9.0,20.0,20,0.00,,,0.00,925.000000,,2013-04-03 20:53:00,
2013-04-03 14:02:00,58.0,17.0,-100.00,ENE,62,9.0,20.0,20,0.00,,,0.00,925.000000,,2013-04-03 21:02:00,
2013-04-03 14:33:00,60.0,15.0,-100.00,ENE,61,8.0,16.0,17,0.00,,,-99.99,881.000000,,2013-04-03 21:33:00,
2013-04-03 14:42:00,60.0,15.0,-100.00,ENE,61,8.0,16.0,17,0.00,,,-99.99,881.000000,,2013-04-03 21:42:00,
2013-04-03 14:52:00,60.0,15.0,-100.00,ENE,61,8.0,16.0,17,0.00,,,-99.99,881.000000,,2013-04-03 21:52:00,
2013-04-03 15:02:00,60.0,15.0,-100.00,ENE,61,8.0,16.0,17,0.00,,,-99.99,881.000000,,2013-04-03 22:02:00,
2013-04-03 15:33:00,62.0,14.0,-100.00,East,85,5.0,14.0,15,0.00,,,0.00,775.000000,,2013-04-03 22:33:00,
2013-04-03 15:42:00,62.0,14.0,-100.00,East,85,5.0,14.0,15,0.00,,,0.00,775.000000,,2013-04-03 22:42:00,
2013-04-03 15:52:00,62.0,14.0,-100.00,East,85,5.0,14.0,15,0.00,,,0.00,775.000000,,2013-04-03 22:52:00,
2013-04-03 16:02:00,62.0,14.0,-100.00,East,85,5.0,14.0,15,0.00,,,0.00,775.000000,,2013-04-03 23:02:00,
2013-04-03 16:33:00,62.0,12.0,-100.00,NE,52,7.0,16.0,14,0.00,,,0.00,614.000000,,2013-04-03 23:33:00,
2013-04-03 16:43:00,62.0,12.0,-100.00,NE,52,7.0,16.0,14,0.00,,,0.00,614.000000,,2013-04-03 23:43:00,
2013-04-03 16:54:00,62.0,12.0,-100.00,NE,52,7.0,16.0,14,0.00,,,0.00,614.000000,,2013-04-03 23:54:00,
2013-04-03 17:02:00,62.0,12.0,-100.00,NE,52,7.0,16.0,14,0.00,,,0.00,614.000000,,2013-04-04 00:02:00,
2013-04-03 17:32:00,61.0,13.0,-100.00,ENE,59,8.0,16.0,15,0.00,,,0.00,415.000000,,2013-04-04 00:32:00,
2013-04-03 17:43:00,61.0,13.0,-100.00,ENE,59,8.0,16.0,15,0.00,,,0.00,415.000000,,2013-04-04 00:43:00,
2013-04-03 17:52:00,61.0,13.0,-100.00,ENE,59,8.0,16.0,15,0.00,,,0.00,415.000000,,2013-04-04 00:52:00,
2013-04-03 18:02:00,61.0,13.0,-100.00,ENE,59,8.0,16.0,15,0.00,,,0.00,415.000000,,2013-04-04 01:02:00,
2013-04-03 18:32:00,58.0,12.0,-100.00,ENE,70,7.0,13.0,16,0.00,,,0.00,195.000000,,2013-04-04 01:32:00,
2013-04-03 18:43:00,58.0,12.0,-100.00,ENE,70,7.0,13.0,16,0.00,,,0.00,195.000000,,2013-04-04 01:43:00,
2013-04-03 18:52:00,58.0,12.0,-100.00,ENE,70,7.0,13.0,16,0.00,,,0.00,195.000000,,2013-04-04 01:52:00,
2013-04-03 19:02:00,58.0,12.0,-100.00,ENE,70,7.0,13.0,16,0.00,,,0.00,195.000000,,2013-04-04 02:02:00,
2013-04-03 19:32:00,51.0,12.0,-100.00,ENE,57,0.0,10.0,21,0.00,,,0.00,23.000000,,2013-04-04 02:32:00,
2013-04-03 19:42:00,51.0,12.0,-100.00,ENE,57,0.0,10.0,21,0.00,,,0.00,23.000000,,2013-04-04 02:42:00,
2013-04-03 19:52:00,51.0,12.0,-100.00,ENE,57,0.0,10.0,21,0.00,,,0.00,23.000000,,2013-04-04 02:52:00,
2013-04-03 20:02:00,51.0,12.0,-100.00,ENE,57,0.0,10.0,21,0.00,,,0.00,23.000000,,2013-04-04 03:02:00,
2013-04-03 20:34:00,40.0,15.0,-100.00,North,357,0.0,0.0,35,0.00,,,-99.99,0.000000,,2013-04-04 03:34:00,
2013-04-03 20:45:00,40.0,15.0,-100.00,North,357,0.0,0.0,35,0.00,,,-99.99,0.000000,,2013-04-04 03:45:00,
2013-04-03 20:53:00,40.0,15.0,-100.00,North,357,0.0,0.0,35,0.00,,,-99.99,0.000000,,2013-04-04 03:53:00,
2013-04-03 21:02:00,40.0,15.0,-100.00,North,357,0.0,0.0,35,0.00,,,-99.99,0.000000,,2013-04-04 04:02:00,
2013-04-03 21:34:00,35.0,16.0,-100.00,NNW,327,0.0,0.0,45,0.00,,,0.00,0.000000,,2013-04-04 04:34:00,
2013-04-03 21:43:00,35.0,16.0,-100.00,NNW,327,0.0,0.0,45,0.00,,,0.00,0.000000,,2013-04-04 04:43:00,
2013-04-03 21:53:00,35.0,16.0,-100.00,NNW,327,0.0,0.0,45,0.00,,,0.00,0.000000,,2013-04-04 04:53:00,
2013-04-03 22:02:00,35.0,16.0,-100.00,NNW,327,0.0,0.0,45,0.00,,,0.00,0.000000,,2013-04-04 05:02:00,
2013-04-03 22:32:00,32.0,16.0,-100.00,WSW,257,0.0,0.0,52,0.00,,,0.00,0.000000,,2013-04-04 05:32:00,
2013-04-03 22:42:00,32.0,16.0,-100.00,WSW,257,0.0,0.0,52,0.00,,,0.00,0.000000,,2013-04-04 05:42:00,
2013-04-03 22:52:00,32.0,16.0,-100.00,WSW,257,0.0,0.0,52,0.00,,,0.00,0.000000,,2013-04-04 05:52:00,
2013-04-03 23:02:00,32.0,16.0,-100.00,WSW,257,0.0,0.0,52,0.00,,,0.00,0.000000,,2013-04-04 06:02:00,
2013-04-03 23:33:00,29.0,16.0,-100.00,NE,50,0.0,0.0,58,0.00,,,0.00,0.000000,,2013-04-04 06:33:00,
2013-04-03 23:42:00,29.0,16.0,-100.00,NE,50,0.0,0.0,58,0.00,,,0.00,0.000000,,2013-04-04 06:42:00,
2013-04-03 23:52:00,29.0,16.0,-100.00,NE,50,0.0,0.0,58,0.00,,,0.00,0.000000,,2013-04-04 06:52:00,